Port Mellon, Canada
Current Conditions -  °F | °C
As of 5:00 PM on Monday 20 Oct 2014 (Local Time) from CYVR Reporting Station
Broken Clouds Broken Clouds  
Wind Chill: 16°   Ceiling: 9000
Heat Index: 16°   Visibility: 15mi
Dew Point: 12°   Wind: 10mph
Humidity: 77%   Direction: 110°ESE
Pressure: 29.72"   Gusts: NA
Location:  49.52°N, 123.48°W
Report Text: CYVR 210000Z 11009KT 15SM FEW020 SCT040TCU BKN090 BKN140 16/12 A2972 RMK CU1TCU2AC2AC1 SLP064 DENSITY ALT 300FT
Loading
Personal Weather Stations






























Interactive Weather Map
Tropical Storm Tracking
New forecast layout! Learn more

10-Day Weather Forecast

Advertisements
Track Severe Weather on mobile